createdAt,value
2023-04-27T00:01:45.292Z,19.80
2023-04-27T00:05:07.996Z,19.80
2023-04-27T00:08:30.344Z,19.80
2023-04-27T00:11:52.680Z,19.80
2023-04-27T00:15:14.977Z,19.80
2023-04-27T00:18:37.187Z,19.80
2023-04-27T00:22:00.349Z,19.80
2023-04-27T00:25:22.924Z,19.70
2023-04-27T00:28:45.201Z,19.70
2023-04-27T00:32:07.785Z,19.70
2023-04-27T00:35:30.137Z,19.70
2023-04-27T00:38:54.047Z,19.70
2023-04-27T00:42:19.540Z,19.70
2023-04-27T00:45:43.512Z,19.70
2023-04-27T00:49:05.846Z,19.70
2023-04-27T00:52:28.176Z,19.70
2023-04-27T00:55:50.441Z,19.60
2023-04-27T00:59:12.962Z,19.70
2023-04-27T01:02:36.867Z,19.70
2023-04-27T01:06:01.609Z,19.70
2023-04-27T01:09:24.172Z,19.60
2023-04-27T01:12:46.426Z,19.60
2023-04-27T01:16:08.720Z,19.60
2023-04-27T01:19:33.582Z,19.60
2023-04-27T01:22:56.518Z,19.60
2023-04-27T01:26:18.871Z,19.60
2023-04-27T01:29:41.385Z,19.60
2023-04-27T01:33:08.234Z,19.60
2023-04-27T01:36:31.863Z,19.60
2023-04-27T01:39:54.107Z,19.60
2023-04-27T01:43:16.431Z,19.60
2023-04-27T01:46:38.804Z,19.60
2023-04-27T01:50:02.518Z,19.60
2023-04-27T01:53:24.816Z,19.60
2023-04-27T01:56:47.065Z,19.60
2023-04-27T02:00:09.868Z,19.60
2023-04-27T02:03:44.266Z,19.50
2023-04-27T02:07:07.831Z,19.50
2023-04-27T02:10:30.655Z,19.50
2023-04-27T02:13:52.914Z,19.50
2023-04-27T02:17:15.567Z,19.50
2023-04-27T02:20:37.818Z,19.50
2023-04-27T02:24:00.182Z,19.50
2023-04-27T02:27:22.526Z,19.50
2023-04-27T02:30:45.226Z,19.50
2023-04-27T02:34:08.540Z,19.50
2023-04-27T02:37:31.090Z,19.50
2023-04-27T02:40:54.977Z,19.50
2023-04-27T02:44:17.274Z,19.50
2023-04-27T02:47:39.635Z,19.50
2023-04-27T02:51:05.746Z,19.50
2023-04-27T02:54:28.018Z,19.50
2023-04-27T02:57:50.335Z,19.50
2023-04-27T03:01:12.627Z,19.50
2023-04-27T03:04:36.708Z,19.50
2023-04-27T03:07:59.184Z,19.50
2023-04-27T03:11:21.407Z,19.50
2023-04-27T03:14:43.675Z,19.50
2023-04-27T03:18:06.253Z,19.50
2023-04-27T03:21:29.491Z,19.50
2023-04-27T03:24:51.745Z,19.50
2023-04-27T03:28:13.999Z,19.50
2023-04-27T03:31:36.373Z,19.50
2023-04-27T03:34:58.732Z,19.40
2023-04-27T03:38:21.033Z,19.40
2023-04-27T03:41:43.421Z,19.40
2023-04-27T03:45:07.182Z,19.40
2023-04-27T03:48:29.831Z,19.40
2023-04-27T03:51:52.574Z,19.40
2023-04-27T03:55:14.897Z,19.40
2023-04-27T03:58:38.009Z,19.40
2023-04-27T04:02:09.703Z,19.40
2023-04-27T04:05:32.494Z,19.40
2023-04-27T04:08:55.632Z,19.40
2023-04-27T04:12:18.060Z,19.40
2023-04-27T04:15:40.351Z,19.40
2023-04-27T04:19:03.174Z,19.40
2023-04-27T04:22:26.138Z,19.40
2023-04-27T04:25:49.076Z,19.40
2023-04-27T04:29:11.597Z,19.40
2023-04-27T04:32:37.646Z,19.40
2023-04-27T04:36:04.495Z,19.40
2023-04-27T04:39:30.449Z,19.40
2023-04-27T04:42:52.946Z,19.40
2023-04-27T04:46:15.739Z,19.40
2023-04-27T04:49:38.071Z,19.40
2023-04-27T04:53:00.896Z,19.40
2023-04-27T04:56:23.286Z,19.40
2023-04-27T04:59:45.545Z,19.40
2023-04-27T05:03:08.049Z,19.40
2023-04-27T05:06:30.628Z,19.40
2023-04-27T05:09:53.005Z,19.30
2023-04-27T05:13:15.342Z,19.40
2023-04-27T05:16:37.716Z,19.30
2023-04-27T05:20:00.446Z,19.30
2023-04-27T05:23:22.796Z,19.30
2023-04-27T05:26:45.278Z,19.30
2023-04-27T05:30:08.119Z,19.30
2023-04-27T05:33:30.573Z,19.30
2023-04-27T05:36:52.777Z,19.30
2023-04-27T05:40:15.859Z,19.30
2023-04-27T05:43:38.743Z,19.30
2023-04-27T05:47:01.306Z,19.30
2023-04-27T05:50:23.719Z,19.30
2023-04-27T05:53:46.596Z,19.30
2023-04-27T05:57:08.869Z,19.20
2023-04-27T06:00:31.833Z,19.20
2023-04-27T06:03:54.396Z,19.30
2023-04-27T06:07:16.693Z,19.30
2023-04-27T06:10:42.043Z,19.30
2023-04-27T06:14:04.300Z,19.30
2023-04-27T06:17:26.654Z,19.40
2023-04-27T06:20:48.944Z,19.40
2023-04-27T06:24:11.236Z,19.40
2023-04-27T06:27:34.487Z,19.50
2023-04-27T06:30:56.769Z,19.50
2023-04-27T06:34:19.077Z,19.50
2023-04-27T06:37:41.409Z,19.60
2023-04-27T06:41:04.289Z,19.60
2023-04-27T06:44:26.894Z,19.60
2023-04-27T06:47:49.273Z,19.60
2023-04-27T06:51:11.530Z,19.70
2023-04-27T06:54:33.826Z,19.70
2023-04-27T06:57:56.022Z,19.70
2023-04-27T07:01:18.276Z,19.70
2023-04-27T07:04:40.804Z,19.70
2023-04-27T07:08:06.211Z,19.60
2023-04-27T07:11:30.702Z,19.60
2023-04-27T07:14:52.955Z,19.60
2023-04-27T07:18:15.616Z,19.70
2023-04-27T07:21:37.995Z,19.70
2023-04-27T07:25:00.391Z,19.70
2023-04-27T07:28:22.636Z,19.70
2023-04-27T07:31:45.215Z,19.70
2023-04-27T07:35:09.390Z,19.70
2023-04-27T07:38:31.883Z,19.70
2023-04-27T07:41:54.857Z,19.70
2023-04-27T07:45:19.792Z,19.70
2023-04-27T07:48:42.248Z,19.70
2023-04-27T07:52:04.816Z,19.70
2023-04-27T07:55:27.309Z,19.70
2023-04-27T07:58:49.488Z,19.70
2023-04-27T08:02:19.677Z,19.70
2023-04-27T08:05:42.600Z,19.60
2023-04-27T08:09:05.307Z,19.70
2023-04-27T08:12:27.691Z,19.60
2023-04-27T08:15:49.978Z,19.60
2023-04-27T08:19:12.451Z,19.70
2023-04-27T08:22:35.166Z,19.70
2023-04-27T08:25:57.548Z,19.70
2023-04-27T08:29:27.713Z,19.60
2023-04-27T08:32:51.413Z,19.70
2023-04-27T08:36:13.777Z,19.70
2023-04-27T08:39:36.205Z,19.70
2023-04-27T08:42:59.909Z,19.70
2023-04-27T08:46:24.005Z,19.60
2023-04-27T08:49:46.529Z,19.60
2023-04-27T08:53:20.768Z,19.60
2023-04-27T08:56:43.030Z,19.60
2023-04-27T09:00:13.259Z,19.60
2023-04-27T09:03:36.839Z,19.60
2023-04-27T09:07:11.169Z,19.60
2023-04-27T09:10:50.411Z,19.60
2023-04-27T09:14:23.878Z,19.60
2023-04-27T09:17:46.304Z,19.60
2023-04-27T09:21:08.548Z,19.60
2023-04-27T09:24:31.110Z,19.60
2023-04-27T09:27:54.353Z,19.60
2023-04-27T09:31:17.130Z,19.60
2023-04-27T09:34:41.236Z,19.60
2023-04-27T09:38:03.673Z,19.70
2023-04-27T09:41:27.652Z,19.70
2023-04-27T09:44:52.714Z,19.70
2023-04-27T09:48:14.929Z,19.70
2023-04-27T09:51:37.202Z,19.70
2023-04-27T09:55:00.749Z,19.70
2023-04-27T09:58:47.178Z,19.70
2023-04-27T10:02:23.453Z,19.70
2023-04-27T10:06:07.995Z,19.70
2023-04-27T10:09:40.094Z,19.70
2023-04-27T10:13:02.588Z,19.70
2023-04-27T10:16:25.695Z,19.70
2023-04-27T10:20:05.299Z,19.70
2023-04-27T10:23:27.590Z,19.70
2023-04-27T10:26:49.845Z,19.70
2023-04-27T10:30:13.861Z,19.60
2023-04-27T10:33:46.162Z,19.70
2023-04-27T10:37:12.388Z,19.70
2023-04-27T10:40:35.803Z,19.70
2023-04-27T10:44:17.129Z,19.70
2023-04-27T10:47:43.944Z,19.70
2023-04-27T10:51:06.993Z,19.70
2023-04-27T10:54:29.598Z,19.70
2023-04-27T10:57:53.962Z,19.80
2023-04-27T11:01:29.684Z,19.90
2023-04-27T11:04:52.294Z,19.90
2023-04-27T11:08:16.865Z,19.90
2023-04-27T11:11:43.468Z,19.90
2023-04-27T11:15:06.373Z,19.90
2023-04-27T11:18:33.651Z,20.00
2023-04-27T11:22:04.611Z,19.90
2023-04-27T11:25:30.346Z,20.00
2023-04-27T11:29:09.895Z,20.00
2023-04-27T11:32:32.541Z,20.00
2023-04-27T11:35:56.431Z,19.90
2023-04-27T11:39:19.616Z,19.90
2023-04-27T11:42:43.602Z,20.00
2023-04-27T11:46:07.126Z,19.90
2023-04-27T11:49:29.435Z,19.80
2023-04-27T11:52:52.893Z,19.80
2023-04-27T11:56:15.214Z,19.80
2023-04-27T11:59:37.438Z,19.80
2023-04-27T12:02:59.835Z,19.80
2023-04-27T12:06:33.297Z,19.70
2023-04-27T12:09:57.171Z,19.70
2023-04-27T12:13:20.800Z,19.70
2023-04-27T12:16:43.153Z,19.70
2023-04-27T12:20:06.241Z,19.70
2023-04-27T12:23:28.636Z,19.70
2023-04-27T12:26:51.817Z,19.70
2023-04-27T12:30:14.747Z,19.70
2023-04-27T12:33:36.973Z,19.70
2023-04-27T12:36:59.244Z,19.70
2023-04-27T12:40:23.212Z,19.70
2023-04-27T12:43:45.950Z,19.70
2023-04-27T12:47:08.226Z,19.70
2023-04-27T12:50:32.328Z,19.70
2023-04-27T12:53:54.977Z,19.70
2023-04-27T12:57:17.214Z,19.70
2023-04-27T13:00:39.627Z,19.70
2023-04-27T13:04:05.673Z,19.80
2023-04-27T13:07:29.239Z,19.70
2023-04-27T13:10:51.512Z,19.70
2023-04-27T13:14:14.099Z,19.70
2023-04-27T13:17:36.745Z,19.70
2023-04-27T13:20:59.149Z,19.70
2023-04-27T13:24:22.147Z,19.70
2023-04-27T13:27:44.396Z,19.70
2023-04-27T13:31:06.774Z,19.70
2023-04-27T13:34:29.046Z,19.70
2023-04-27T13:37:53.803Z,19.70
2023-04-27T13:41:16.558Z,19.70
2023-04-27T13:44:38.886Z,19.70
2023-04-27T13:48:01.413Z,19.80
2023-04-27T13:51:25.075Z,19.90
2023-04-27T13:54:47.285Z,19.80
2023-04-27T13:58:10.792Z,19.90
2023-04-27T14:01:33.729Z,19.90
2023-04-27T14:04:56.737Z,19.90
2023-04-27T14:08:19.357Z,19.90
2023-04-27T14:11:54.972Z,19.90
2023-04-27T14:15:18.513Z,19.80
2023-04-27T14:18:40.750Z,19.80
2023-04-27T14:22:04.662Z,19.80
2023-04-27T14:25:32.440Z,19.70
2023-04-27T14:28:58.553Z,19.70
2023-04-27T14:32:21.452Z,19.70
2023-04-27T14:35:43.787Z,19.70
2023-04-27T14:39:06.853Z,19.70
2023-04-27T14:42:29.049Z,19.70
2023-04-27T14:45:55.505Z,19.70
2023-04-27T14:49:21.790Z,19.60
2023-04-27T14:52:44.079Z,19.70
2023-04-27T14:56:06.499Z,19.60
2023-04-27T14:59:29.032Z,19.70
2023-04-27T15:02:51.315Z,19.70
2023-04-27T15:06:13.938Z,19.80
2023-04-27T15:09:36.155Z,19.70
2023-04-27T15:12:58.363Z,19.70
2023-04-27T15:16:20.851Z,19.70
2023-04-27T15:19:43.127Z,19.70
2023-04-27T15:23:05.447Z,19.60
2023-04-27T15:26:27.736Z,19.60
2023-04-27T15:29:49.996Z,19.70
2023-04-27T15:33:16.502Z,19.60
2023-04-27T15:36:38.899Z,19.60
2023-04-27T15:40:02.338Z,19.60
2023-04-27T15:43:24.535Z,19.70
2023-04-27T15:46:46.947Z,19.70
2023-04-27T15:50:09.418Z,19.70
2023-04-27T15:53:31.985Z,19.70
2023-04-27T15:56:54.281Z,19.70
2023-04-27T16:00:17.997Z,19.70
2023-04-27T16:03:40.534Z,19.70
2023-04-27T16:07:02.865Z,19.70
2023-04-27T16:10:25.158Z,19.70
2023-04-27T16:13:47.466Z,19.80
2023-04-27T16:17:09.664Z,19.80
2023-04-27T16:20:33.125Z,19.80
2023-04-27T16:23:57.380Z,19.80
2023-04-27T16:27:20.803Z,19.80
2023-04-27T16:30:43.065Z,19.90
2023-04-27T16:34:05.811Z,19.90
2023-04-27T16:37:28.057Z,19.90
2023-04-27T16:40:50.805Z,19.90
2023-04-27T16:44:13.756Z,19.90
2023-04-27T16:47:36.617Z,19.90
2023-04-27T16:50:58.833Z,19.90
2023-04-27T16:54:21.608Z,19.90
2023-04-27T16:57:43.930Z,19.90
2023-04-27T17:01:06.327Z,19.90
2023-04-27T17:04:28.979Z,19.90
2023-04-27T17:07:51.402Z,19.90
2023-04-27T17:11:14.509Z,20.00
2023-04-27T17:14:38.324Z,20.00
2023-04-27T17:18:04.881Z,20.00
2023-04-27T17:21:27.460Z,20.00
2023-04-27T17:24:50.233Z,20.00
2023-04-27T17:28:12.510Z,20.00
2023-04-27T17:31:34.765Z,20.10
2023-04-27T17:34:57.612Z,20.10
2023-04-27T17:38:19.907Z,20.10
2023-04-27T17:41:42.346Z,20.10
2023-04-27T17:45:04.906Z,20.20
2023-04-27T17:48:27.284Z,20.20
2023-04-27T17:51:49.678Z,20.20
2023-04-27T17:55:12.349Z,20.20
2023-04-27T17:58:34.675Z,20.20
2023-04-27T18:01:57.117Z,20.20
2023-04-27T18:05:19.582Z,20.20
2023-04-27T18:08:41.824Z,20.20
2023-04-27T18:12:10.670Z,20.20
2023-04-27T18:15:33.099Z,20.20
2023-04-27T18:18:55.740Z,20.20
2023-04-27T18:22:18.096Z,20.20
2023-04-27T18:25:40.374Z,20.20
2023-04-27T18:29:03.228Z,20.20
2023-04-27T18:32:25.499Z,20.20
2023-04-27T18:35:47.853Z,20.20
2023-04-27T18:39:10.083Z,20.20
2023-04-27T18:42:32.427Z,20.20
2023-04-27T18:45:54.768Z,20.20
2023-04-27T18:49:17.296Z,20.20
2023-04-27T18:52:39.979Z,20.10
2023-04-27T18:56:02.696Z,20.00
2023-04-27T18:59:24.951Z,20.00
2023-04-27T19:02:47.877Z,20.00
2023-04-27T19:06:10.344Z,20.00
2023-04-27T19:09:32.801Z,20.00
2023-04-27T19:12:56.094Z,20.00
2023-04-27T19:16:18.489Z,20.00
2023-04-27T19:19:40.869Z,20.00
2023-04-27T19:23:03.187Z,20.00
2023-04-27T19:26:26.050Z,20.00
2023-04-27T19:29:55.050Z,19.90
2023-04-27T19:33:19.679Z,20.00
2023-04-27T19:36:42.589Z,19.90
2023-04-27T19:40:05.836Z,19.90
2023-04-27T19:43:29.116Z,20.00
2023-04-27T19:46:51.552Z,20.00
2023-04-27T19:50:13.924Z,20.00
2023-04-27T19:53:36.939Z,20.00
2023-04-27T19:56:59.174Z,20.00
2023-04-27T20:00:21.639Z,20.00
2023-04-27T20:03:44.107Z,20.00
2023-04-27T20:07:06.754Z,20.00
2023-04-27T20:10:29.022Z,20.00
2023-04-27T20:13:51.278Z,20.00
2023-04-27T20:17:14.584Z,20.00
2023-04-27T20:20:37.145Z,20.00
2023-04-27T20:23:59.671Z,20.00
2023-04-27T20:27:22.019Z,20.10
2023-04-27T20:30:44.324Z,20.10
2023-04-27T20:34:06.630Z,20.10
2023-04-27T20:37:28.841Z,20.10
2023-04-27T20:40:53.121Z,20.10
2023-04-27T20:44:16.549Z,20.10
2023-04-27T20:47:39.019Z,20.10
2023-04-27T20:51:01.734Z,20.10
2023-04-27T20:54:23.973Z,20.10
2023-04-27T20:57:46.250Z,20.10
2023-04-27T21:01:08.586Z,20.10
2023-04-27T21:04:30.973Z,20.10
2023-04-27T21:07:54.009Z,20.10
2023-04-27T21:11:18.159Z,20.10
2023-04-27T21:14:40.921Z,20.10
2023-04-27T21:21:28.675Z,20.10
2023-04-27T21:24:51.028Z,20.10
2023-04-27T21:28:13.999Z,20.10
2023-04-27T21:31:36.565Z,20.10
2023-04-27T21:35:00.487Z,20.20
2023-04-27T21:38:22.683Z,20.10
2023-04-27T21:41:44.976Z,20.10
2023-04-27T21:45:07.879Z,20.10
2023-04-27T21:48:30.118Z,20.10
2023-04-27T21:51:52.479Z,20.10
2023-04-27T21:55:14.747Z,20.00
2023-04-27T21:58:37.107Z,20.10
2023-04-27T22:01:59.854Z,20.10
2023-04-27T22:05:22.187Z,20.00
2023-04-27T22:08:44.594Z,20.00
2023-04-27T22:12:07.000Z,20.00
2023-04-27T22:15:29.232Z,20.00
2023-04-27T22:18:51.885Z,20.00
2023-04-27T22:22:14.158Z,20.00
2023-04-27T22:25:39.509Z,20.00
2023-04-27T22:29:01.958Z,20.00
2023-04-27T22:32:24.304Z,20.00
2023-04-27T22:35:47.007Z,20.00
2023-04-27T22:39:09.356Z,20.00
2023-04-27T22:42:31.760Z,20.00
2023-04-27T22:45:54.079Z,19.90
2023-04-27T22:49:17.281Z,19.90
2023-04-27T22:52:42.353Z,19.90
2023-04-27T22:56:05.910Z,19.90
2023-04-27T22:59:28.127Z,19.90
2023-04-27T23:02:50.649Z,19.90
2023-04-27T23:06:16.638Z,19.90
2023-04-27T23:09:38.825Z,19.90
2023-04-27T23:13:04.239Z,19.90
2023-04-27T23:16:26.585Z,19.90
2023-04-27T23:19:49.665Z,19.90
2023-04-27T23:23:11.979Z,19.90
2023-04-27T23:26:34.273Z,19.90
2023-04-27T23:29:56.498Z,19.90
2023-04-27T23:33:20.513Z,19.90
2023-04-27T23:36:42.821Z,19.90
2023-04-27T23:40:06.349Z,19.90
2023-04-27T23:43:28.746Z,19.80
2023-04-27T23:46:51.330Z,19.80
2023-04-27T23:50:13.597Z,19.80
2023-04-27T23:53:36.030Z,19.90
2023-04-27T23:56:58.259Z,19.80
